ジュノー国際空港の過去48時間の天気

ジュノー国際空港 (Juneau, Juneau International Airport)

現在時刻: 9/15 19:05 AKDT (9/16 03:05 UTC) 以下の時間は現地時間です。

過去48時間のMETAR気象情報
時間 風向 風速(m/s) 視程 気温(℃) 湿度(%) 気圧(hPa) 天気現象
15 17:53 東北東 4 10km以上 16 59 1003
15 16:53 3 10km以上 16.7 67 1003.1
15 15:53 西南西 2 10km以上 18 56 1004
15 14:53 西南西 3 10km以上 17 59 1004
15 13:53 西南西 3 10km以上 16.7 60 1005.2
15 12:53 西南西 4 10km以上 15.6 67 1005.8
15 11:53 西南西 4 10km以上 14.4 70 1006
15 10:53 西 2 10km以上 13.3 77 1006.6
15 09:53 西 2 10km以上 10 89 1007.3 散在した霧
15 09:17 西南西 2 10km以上 9.4 97 1007 散在した霧
15 08:53 静穏 0 800m 8.9 100 1008.4
15 08:35 西 2 200m 8.9 96 1008
15 07:53 静穏 0 800m 9.4 93 1008.7
15 07:41 静穏 0 800m 9.4 93 1008
15 07:32 静穏 0 3200m 8.9 96 1008 もや
15 06:53 静穏 0 10km以上 8.3 93 1008.7
15 06:44 静穏 0 10km以上 8.3 97 1008
15 05:53 静穏 0 10km以上 7.8 93 1008.4
15 05:30 静穏 0 10km以上 7.2 97 1008
15 04:53 西 3 10km以上 6.7 93 1008
15 03:53 静穏 0 10km以上 7.2 97 1008
15 02:53 西北西 2 10km以上 7.2 93 1008
15 01:53 静穏 0 10km以上 7.2 93 1008
15 00:53 西北西 2 10km以上 7.8 93 1007.7
14 23:53 南西 2 10km以上 7.8 93 1007.4
14 22:53 静穏 0 10km以上 9.4 86 1007.4
14 21:53 南南西 2 10km以上 10.6 86 1007
14 20:53 南西 2 10km以上 11.1 80 1006.7
14 19:53 静穏 0 10km以上 12.2 86 1006.7
14 18:53 西南西 2 10km以上 13.3 80 1006.3
14 17:53 西南西 3 10km以上 13.9 74 1006.3
14 16:53 西南西 4 10km以上 14 72 1005 弱い雨
14 15:53 南西 4 10km以上 15 72 1005
14 14:53 西南西 3 10km以上 14.4 72 1006
14 13:53 不定 2 10km以上 13.3 77 1006
14 12:53 西南西 4 10km以上 13.3 77 1006
14 11:53 南西 5 10km以上 12.2 86 1005.7
14 10:53 西南西 3 10km以上 12.2 83 1005.3
14 09:53 西南西 2 10km以上 10.6 86 1005.3
14 08:53 静穏 0 10km以上 8.9 96 1005
14 07:53 静穏 0 10km以上 7.8 100 1005 散在した霧
14 07:20 静穏 0 10km以上 7.8 96 1004 散在した霧
14 06:53 静穏 0 10km以上 7.8 100 1004.3 散在した霧
14 06:05 静穏 0 10km以上 7.8 96 1003 散在した霧
14 05:31 静穏 0 400m 7.8 100 1003
14 04:53 東北東 2 400m 8.3 97 1004
14 03:53 静穏 0 4850m 8.3 97 1003.6 もや
14 03:33 静穏 0 4850m 8.9 100 1003 もや
14 03:05 2 10km以上 8.3 97 1003 もや
14 02:53 東北東 2 4850m 8.3 97 1003.3 もや
14 02:48 2 3200m 8 100 1003 もや
14 01:53 静穏 0 10km以上 8.9 96 1003.3
14 00:53 西南西 2 10km以上 8.3 97 1003.3
14 00:05 2 10km以上 10 96 1002
13 23:53 北北東 2 10km以上 9.4 93 1002.4
13 22:53 静穏 0 10km以上 10 96 1002.4
13 21:53 東北東 3 10km以上 10 96 1002.3 弱い雨
13 20:53 静穏 0 10km以上 10 93 1002.2
13 19:53 東北東 3 10km以上 10 93 1002.2
PAJN 160153Z 07008KT 10SM FEW055 SCT075 SCT230 BKN250 BKN300 16/08 A2961
PAJN 160053Z 08005KT 10SM FEW055 FEW230 SCT250 SCT300 17/11 A2962 RMK AO2 SLP031 T01670106
PAJN 152353Z 25004KT 10SM FEW055 FEW095 SCT220 SCT250 SCT300 18/09 A2964
PAJN 152253Z 25005KT 10SM FEW050 FEW090 FEW220 SCT250 SCT300 17/09 A2966
PAJN 152153Z 25006KT 10SM FEW050 FEW080 FEW220 17/09 A2969 RMK AO2 SLP052 T01670089
PAJN 152053Z 25008KT 10SM FEW050 FEW060 FEW220 16/09 A2970 RMK AO2 SLP058 T01560094 56015
PAJN 151953Z 24008KT 10SM FEW050 FEW200 14/09 A2971 RMK SLP060 T01440089 VIA AUTODIAL
PAJN 151853Z 27003KT 10SM FEW040 13/09 A2973 RMK SLP066 T01330094 VIA AUTODIAL
PAJN 151753Z 26004KT 10SM BCFG FEW000 FEW003 FEW040 10/08 A2975 RMK AO2 SLP073 BCFG FEW000 BCFG E AND SW T01000083 10100 20067 58016
PAJN 151717Z 24003KT 10SM BCFG FEW000 FEW003 FEW015 09/09 A2975 RMK AO2 VIS E-S 1 SW 3 BCFG FEW000 BCFG E-SW T00940089 $
PAJN 151653Z 00000KT 1/2SM R08/0600V1200FT FG BKN000 09/09 A2976 RMK AO2 SLP084 VIS NW-NE 2 SE-SW 1/8 FG BKN000 T00890089 $
PAJN 151635Z 28004KT 1/8SM R08/0800V1600FT FG OVC003 09/08 A2976 RMK AO2 TWR VIS 1/2 T00890083 $
PAJN 151553Z 00000KT 1/2SM R08/P6000FT FG OVC003 09/08 A2977 RMK AO2 SLP087 VIS SE-SW 4 T00940083 $
PAJN 151541Z 00000KT 1/2SM R08/P6000FT FG OVC003 09/08 A2977 RMK AO2 VIS SE 6 S-SW 3 T00940083 $
PAJN 151532Z 00000KT 2SM BR OVC004 09/08 A2977 RMK AO2 SFC VIS 3 T00890083 $
PAJN 151453Z 00000KT 10SM OVC004 08/07 A2977 RMK AO2 SLP087 T00830072 53007 $
PAJN 151444Z 00000KT 10SM OVC004 08/08 A2976 RMK AO2 T00830078 $
PAJN 151353Z 00000KT 10SM BKN006 BKN085 08/07 A2976 RMK AO2 SLP084 T00780067 $
PAJN 151330Z 00000KT 10SM BKN006 BKN085 07/07 A2976 RMK AO2 T00720067 $
PAJN 151253Z 26005KT 10SM FEW008 SCT085 07/06 A2975 RMK SLP080 T00670056 $ VIA AUTODIAL
PAJN 151153Z 00000KT 10SM SCT085 07/07 A2975 RMK AO2 SLP080 T00720067 10106 20061 51003 $
PAJN 151053Z 29003KT 10SM FEW090 07/06 A2975 RMK AO2 SLP080 T00720061 $
PAJN 150953Z 00000KT 10SM FEW090 07/06 A2975 RMK AO2 SLP080 T00720061 $
PAJN 150853Z 29004KT 10SM FEW090 08/07 A2974 RMK AO2 SLP077 AURBO T00780067 401500072 52007 $
PAJN 150753Z 22004KT 10SM FEW090 08/07 A2973 RMK SLP074 T00780067 $ VIA AUTODIAL
PAJN 150653Z 00000KT 10SM FEW090 SCT120 09/07 A2973 RMK AO2 SLP074 T00940072 $
PAJN 150553Z 20003KT 10SM SCT095 OVC120 11/08 A2972 RMK AO2 SLP070 60000 T01060083 10150 20106 52007 $
PAJN 150453Z 22003KT 10SM BKN095 11/08 A2971 RMK AO2 SLP067 T01110078 $
PAJN 150353Z COR 00000KT 10SM BKN085 BKN120 BKN200 12/10 A2971 RMK AO2 SLP067 T01220100 $
PAJN 150253Z 24004KT 10SM BKN090 BKN120 OVC200 13/10 A2970 RMK AO2 SLP063 60000 T01330100 52003 $
PAJN 150153Z 24006KT 10SM FEW032 BKN090 BKN120 OVC200 14/09 A2970 RMK AO2 RAE36 SLP063 BINOVC P0000 T01390094 $
PAJN 150053Z 24007KT 10SM -RA FEW030 SCT070 BKN090 BKN130 OVC200 14/09 A2969
PAJN 142353Z 23008KT 10SM FEW025 SCT070 BKN095 BKN130 BKN200 15/10 A2969
PAJN 142253Z 24006KT 10SM FEW024 BKN100 BKN150 OVC200 14/09 A2969 RMK AO2 SLP060 BINOVC T01440094 $
PAJN 142153Z VRB04KT 10SM FEW020 BKN095 BKN150 OVC200 13/09 A2969 RMK AO2 SLP060 BINOVC T01330094 $
PAJN 142053Z 24008KT 10SM FEW020 FEW042 BKN095 BKN150 13/09 A2969 RMK AO2 SLP060 T01330094 53007 $
PAJN 141953Z 23009KT 10SM FEW005 FEW015 BKN100 BKN150 12/10 A2968 RMK AO2 SLP057 T01220100 $
PAJN 141853Z 24006KT 10SM FEW003 FEW016 SCT080 BKN130 12/09 A2967 RMK AO2 SLP053 T01220094 $
PAJN 141753Z 25003KT 10SM FEW002 FEW015 SCT080 BKN130 11/08 A2967 RMK AO2 SLP053 T01060083 10106 20072 51010 $
PAJN 141653Z 00000KT 10SM FEW002 SCT027 BKN075 BKN130 09/08 A2966 RMK AO2 SLP050 T00890083 $
PAJN 141553Z 00000KT 10SM BCFG FEW000 SCT024 BKN075 BKN130 08/08 A2966 RMK AO2 SLP050 VIS E-SE 2 BCFG FEW000 BCFG E-S T00780078 $
PAJN 141520Z COR 00000KT 10SM BCFG FEW000 FEW018 BKN075 BKN130 08/07 A2965 RMK AO2 VIS E-S 1 BCFG FEW000 BCFG E-S-W T00780072 $
PAJN 141453Z 00000KT 10SM BCFG BKN002 BKN060 BKN100 08/08 A2964 RMK AO2 SLP043 VIS LWR S-SE BCFG ALQDS T00780078 53003 $
PAJN 141405Z COR 00000KT 10SM R08/1200VP6000FT BCFG SCT000 BKN002 BKN060 08/07 A2963 RMK AO2 VISLWR SE BCFG SCT000 BCFG ALQDS T00780072 $
PAJN 141331Z 00000KT 1/4SM R08/1400VP6000FT FG VV002 08/08 A2963 RMK AO2 T00780078 $
PAJN 141253Z 06003KT 1/4SM R08/1400V1800FT FG VV002 08/08 A2963 RMK AO2 SLP040 T00830078 $
PAJN 141153Z 00000KT 3SM BR BKN002 BKN060 08/08 A2962 RMK AO2 SLP036 60001 70086 T00830078 10100 20078 53003 $
PAJN 141133Z 00000KT 3SM BR BKN002 BKN060 09/09 A2962 RMK AO2 T00890089 $
PAJN 141105Z 08003KT 6SM BR BKN005 BKN060 08/08 A2962 RMK AO2 T00830078 $
PAJN 141053Z 07003KT 3SM BR BKN004 OVC060 08/08 A2961 RMK AO2 SLP033 T00830078 $
PAJN 141048Z 08004KT 2SM BR BKN004 OVC065 08/08 A2961 RMK AO2 $
PAJN 140953Z 00000KT 10SM BKN005 OVC065 09/08 A2961 RMK AO2 SLP033 T00890083 $
PAJN 140853Z 25003KT 10SM FEW007 SCT070 BKN110 08/08 A2961 RMK SLP033 60001 T00830078 401390083 53012 $ VIA AUTODIAL
PAJN 140805Z 08003KT 10SM FEW007 BKN070 OVC110 10/09 A2960 RMK AO2 T01000094 $
PAJN 140753Z 02003KT 10SM BKN065 OVC075 09/08 A2960 RMK AO2 SLP024 T00940083
PAJN 140653Z 00000KT 10SM SCT050 OVC070 10/09 A2960 RMK AO2 RAE11 SLP024 P0001 T01000094
PAJN 140553Z 06005KT 8SM -RA SCT044 OVC060 10/09 A2960 RMK AO2 RAB44 SLP023 P0000 60035 T01000094 10133 20089 51002
PAJN 140453Z 00000KT 10SM FEW060 SCT075 BKN090 10/09 A2960 RMK AO2 SLP022 T01000089
PAJN 140353Z 07005KT 10SM FEW050 FEW065 BKN085 10/09 A2960 RMK AO2 RAE15 SLP022 P0000 T01000089